This is the latest recevied weather packets stored in our database for station/object BMCB-27. If no packets are shown the sender has not sent any weather packets the latest 10 day(s).
| Time | Temp. | Humidity | Pressure | Rain* | Wind** | Luminosity | Snow |
|---|---|---|---|---|---|---|---|
| 1778196600 | 10° C | 85% | 1015.3 hPa | 0 mm | - | 0 W/m² | - |
| 1778194478 | 10.56° C | 83% | 1015.4 hPa | 0 mm | - | 0 W/m² | - |
| 1778190926 | 10.56° C | 84% | 1015.4 hPa | 0 mm | - | 0 W/m² | - |
| 1778188153 | 11.11° C | 80% | 1015.4 hPa | 0 mm | - | 0 W/m² | - |
| 1778184403 | 11.11° C | 79% | 1015 hPa | 0 mm | - | 0 W/m² | - |
| 1778179668 | 11.67° C | 76% | 1014.5 hPa | 0 mm | - | 0 W/m² | - |
| 1778165511 | 13.89° C | 62% | 1014.2 hPa | 0 mm | - | 314 W/m² | - |
| 1778164906 | 13.89° C | 61% | 1014.2 hPa | 0 mm | - | 322 W/m² | - |
| 1778163510 | 13.33° C | 65% | 1014.3 hPa | 0 mm | - | 286 W/m² | - |
| 1778157662 | 12.78° C | 69% | 1014.5 hPa | 0 mm | - | 204 W/m² | - |
| 1778153924 | 12.22° C | 71% | 1014.4 hPa | 0 mm | - | 172 W/m² | - |
| 1778151737 | 12.78° C | 72% | 1014.4 hPa | 0 mm | - | 586 W/m² | - |
| 1778147333 | 12.22° C | 73% | 1014.4 hPa | 0 mm | - | 442 W/m² | - |
| 1778144921 | 11.11° C | 78% | 1014.3 hPa | 0 mm | - | 270 W/m² | - |
| 1778137975 | 9.44° C | 87% | 1013.9 hPa | 0 mm | - | 214 W/m² | - |
| 1778122764 | 7.22° C | 97% | 1012.3 hPa | 0 mm | - | 0 W/m² | - |
| 1778122090 | 7.22° C | 96% | 1012.2 hPa | 0 mm | - | 0 W/m² | - |
| 1778121097 | 7.22° C | 95% | 1012.2 hPa | 0 mm | - | 0 W/m² | - |
| 1778120455 | 7.22° C | 95% | 1012.1 hPa | 0 mm | - | 0 W/m² | - |
| 1778118846 | 7.78° C | 95% | 1011.9 hPa | 0 mm | - | 0 W/m² | - |
| 1778106061 | 6.67° C | 96% | 1011.1 hPa | 0 mm | - | 0 W/m² | - |
| 1778102576 | 6.67° C | 91% | 1010.6 hPa | 0 mm | - | 0 W/m² | - |
| 1778092203 | 10.56° C | 84% | 1008.9 hPa | 0 mm | - | 16 W/m² | - |
| 1778089302 | 11.11° C | 87% | 1008.2 hPa | 0 mm | - | 34 W/m² | - |
| 1778086998 | 11.11° C | 85% | 1008 hPa | 0 mm | - | 40 W/m² | - |
* Rain latest hour (hover to see other rain measurements)
** Current wind speed in m/s (hover to see current wind gust speed)